Time;durP1;ratioP1;P1;durP2;ratioP2;P2;SDS_P1;SDS_P2;PMS_P1;PMS_P2;Temp;Humidity;BMP_temperature;BMP_pressure;BME280_temperature;BME280_humidity;BME280_pressure;Samples;Min_cycle;Max_cycle;Signal;HPM_P1;HPM_P2
2021/10/05 00:02:14;;;;;;;3.57;0.67;;;19.80;69.90;;;;;;5094839;28;20191;-71
2021/10/05 00:04:41;;;;;;;6.23;0.90;;;19.80;70.20;;;;;;5093250;28;20278;-74
2021/10/05 00:07:09;;;;;;;3.03;0.87;;;19.70;71.00;;;;;;5088236;28;20201;-72
2021/10/05 00:09:37;;;;;;;4.13;0.90;;;19.70;69.90;;;;;;5090242;28;20193;-73
2021/10/05 00:12:04;;;;;;;4.70;0.83;;;20.00;70.10;;;;;;5093983;28;20288;-73
2021/10/05 00:14:32;;;;;;;1.80;0.70;;;20.00;69.30;;;;;;5092551;28;20578;-74
2021/10/05 00:16:59;;;;;;;1.77;0.60;;;20.30;69.10;;;;;;5092796;28;20657;-77
2021/10/05 00:19:26;;;;;;;1.70;0.70;;;20.40;69.20;;;;;;5092289;28;20187;-71
2021/10/05 00:21:54;;;;;;;4.00;0.90;;;20.30;70.00;;;;;;5096866;28;20646;-76
2021/10/05 00:24:21;;;;;;;2.63;0.60;;;20.10;69.40;;;;;;5087163;28;20218;-73
2021/10/05 00:26:49;;;;;;;1.73;0.60;;;20.20;68.30;;;;;;5083718;28;20194;-72
2021/10/05 00:29:16;;;;;;;2.07;0.77;;;20.00;68.80;;;;;;5091271;28;20206;-68
2021/10/05 00:31:43;;;;;;;2.23;0.90;;;20.30;69.70;;;;;;5093296;28;20175;-73
2021/10/05 00:34:11;;;;;;;3.57;1.00;;;20.20;69.30;;;;;;5090830;28;20191;-73
2021/10/05 00:36:38;;;;;;;4.37;0.70;;;20.10;69.20;;;;;;5089617;28;20210;-75
2021/10/05 00:39:05;;;;;;;1.97;0.60;;;20.30;68.20;;;;;;5091107;28;20251;-71
2021/10/05 00:41:34;;;;;;;4.27;0.63;;;20.50;67.10;;;;;;5088848;28;20814;-71
2021/10/05 00:44:02;;;;;;;3.30;0.67;;;20.30;66.00;;;;;;5087205;28;20193;-72
2021/10/05 00:46:30;;;;;;;2.33;0.80;;;20.30;66.80;;;;;;5091577;28;20224;-71
2021/10/05 00:48:57;;;;;;;2.50;0.60;;;20.50;67.00;;;;;;5088034;28;20174;-72
2021/10/05 00:51:25;;;;;;;2.33;0.77;;;20.50;67.00;;;;;;5089934;28;20183;-74
2021/10/05 00:53:53;;;;;;;3.87;0.80;;;20.50;66.70;;;;;;5089744;28;20561;-73
2021/10/05 00:56:24;;;;;;;6.90;0.90;;;20.60;67.00;;;;;;5086076;28;20189;-75
2021/10/05 00:58:52;;;;;;;2.13;0.70;;;20.80;67.80;;;;;;5088462;28;20548;-72
2021/10/05 01:01:19;;;;;;;2.93;1.00;;;20.80;66.90;;;;;;5092355;28;20656;-77
2021/10/05 01:03:47;;;;;;;7.13;1.07;;;20.50;67.20;;;;;;5087389;28;20580;-72
2021/10/05 01:06:14;;;;;;;2.20;0.60;;;20.60;67.00;;;;;;5088694;28;20218;-72
2021/10/05 01:08:41;;;;;;;2.57;1.23;;;20.70;68.00;;;;;;5092969;28;20653;-71
2021/10/05 01:11:09;;;;;;;2.13;0.80;;;20.60;67.50;;;;;;5091107;28;20183;-72
2021/10/05 01:13:37;;;;;;;2.20;0.67;;;21.10;67.80;;;;;;5092917;28;20197;-68
2021/10/05 01:16:06;;;;;;;2.90;0.70;;;20.90;66.30;;;;;;5084210;28;20189;-71
2021/10/05 01:18:33;;;;;;;1.77;0.60;;;20.90;64.70;;;;;;5089904;28;20191;-73
2021/10/05 01:21:02;;;;;;;1.07;0.50;;;21.00;63.90;;;;;;5087886;28;20206;-73
2021/10/05 01:23:33;;;;;;;1.60;0.70;;;20.90;62.50;;;;;;5079344;28;20258;-72
2021/10/05 01:26:02;;;;;;;2.23;0.60;;;21.00;62.20;;;;;;5086128;28;20533;-71
2021/10/05 01:28:30;;;;;;;1.77;0.40;;;20.90;58.50;;;;;;5091542;28;20202;-71
2021/10/05 01:30:58;;;;;;;0.70;0.50;;;21.10;59.80;;;;;;5089950;28;20328;-74
2021/10/05 01:33:28;;;;;;;3.20;0.80;;;21.50;61.10;;;;;;5081996;28;20566;-70
2021/10/05 01:35:56;;;;;;;2.20;0.60;;;21.20;60.40;;;;;;5089115;28;20659;-70
2021/10/05 01:38:24;;;;;;;1.33;0.40;;;21.30;59.80;;;;;;5092597;28;20221;-73
2021/10/05 01:40:51;;;;;;;1.00;0.60;;;21.40;61.30;;;;;;5092485;28;20711;-71
2021/10/05 01:43:18;;;;;;;1.47;0.50;;;21.40;60.30;;;;;;5093111;28;20185;-72
2021/10/05 01:45:46;;;;;;;2.70;0.50;;;21.30;61.50;;;;;;5091662;28;20212;-72
2021/10/05 01:48:13;;;;;;;0.63;0.50;;;21.30;61.40;;;;;;5092190;28;20257;-73
2021/10/05 01:50:41;;;;;;;1.47;0.50;;;21.30;60.80;;;;;;5093482;28;20167;-74
2021/10/05 01:53:08;;;;;;;5.03;0.57;;;21.30;60.00;;;;;;5091182;28;20534;-74
2021/10/05 01:55:35;;;;;;;0.80;0.40;;;21.50;60.90;;;;;;5092068;28;20174;-72
2021/10/05 01:58:03;;;;;;;1.23;0.50;;;21.80;59.00;;;;;;5091628;28;20574;-75
2021/10/05 02:00:31;;;;;;;0.67;0.30;;;22.10;58.70;;;;;;5093317;28;20171;-73
2021/10/05 02:02:58;;;;;;;0.93;0.40;;;22.10;58.90;;;;;;5093235;28;20224;-75
2021/10/05 02:05:25;;;;;;;2.80;0.30;;;21.80;58.70;;;;;;5092862;28;20171;-73
2021/10/05 02:07:52;;;;;;;1.07;0.40;;;21.50;57.50;;;;;;5092704;28;20188;-74
2021/10/05 02:10:20;;;;;;;0.60;0.43;;;21.80;57.70;;;;;;5087804;28;20209;-73
2021/10/05 02:12:47;;;;;;;5.93;0.47;;;21.90;58.40;;;;;;5093244;28;20246;-71
2021/10/05 02:15:14;;;;;;;0.30;0.30;;;22.50;58.40;;;;;;5084395;28;20682;-73
2021/10/05 02:17:42;;;;;;;1.47;0.67;;;22.10;58.20;;;;;;5081163;28;20609;-72
2021/10/05 02:20:12;;;;;;;1.37;0.50;;;22.00;58.00;;;;;;5093389;28;20204;-73
2021/10/05 02:22:40;;;;;;;1.50;0.70;;;22.00;57.90;;;;;;5093033;28;20182;-72
2021/10/05 02:25:08;;;;;;;0.30;0.30;;;22.20;57.20;;;;;;5092413;28;20202;-71
2021/10/05 02:27:35;;;;;;;3.80;0.50;;;22.30;56.80;;;;;;5093319;28;20198;-71
2021/10/05 02:30:04;;;;;;;0.47;0.40;;;22.30;57.30;;;;;;5085602;28;20657;-72
2021/10/05 02:32:31;;;;;;;2.70;0.30;;;22.50;57.40;;;;;;5094143;28;20187;-71
2021/10/05 02:34:59;;;;;;;1.73;0.50;;;22.50;55.90;;;;;;5092776;28;20181;-75
2021/10/05 02:37:31;;;;;;;2.83;0.60;;;22.80;56.30;;;;;;5092617;28;20198;-71
2021/10/05 02:40:05;;;;;;;1.67;0.37;;;22.70;55.20;;;;;;5092066;28;20185;-73
2021/10/05 02:42:32;;;;;;;1.60;0.47;;;22.20;55.80;;;;;;5092681;28;20178;-73
2021/10/05 02:45:00;;;;;;;0.93;0.43;;;22.00;56.90;;;;;;5092860;28;20253;-74
2021/10/05 02:47:27;;;;;;;2.20;0.50;;;22.20;55.50;;;;;;5092357;28;20182;-73
2021/10/05 02:49:55;;;;;;;1.60;0.37;;;22.70;56.50;;;;;;5092233;28;20216;-72
2021/10/05 02:52:23;;;;;;;0.40;0.40;;;22.90;55.70;;;;;;5092411;28;20504;-75
2021/10/05 02:54:51;;;;;;;3.33;0.50;;;22.60;55.20;;;;;;5092203;28;20178;-71
2021/10/05 02:57:20;;;;;;;1.20;0.57;;;22.60;55.70;;;;;;5090730;28;20221;-73
2021/10/05 02:59:48;;;;;;;3.77;0.70;;;22.70;55.40;;;;;;5072259;28;20179;-72
2021/10/05 03:02:16;;;;;;;1.97;0.63;;;22.50;55.00;;;;;;5078680;28;20170;-71
2021/10/05 03:04:43;;;;;;;2.27;0.70;;;22.70;54.20;;;;;;5092348;28;20200;-73
2021/10/05 03:07:11;;;;;;;1.13;0.40;;;23.10;54.20;;;;;;5092017;28;20182;-72
2021/10/05 03:09:38;;;;;;;2.13;0.70;;;22.90;53.40;;;;;;5091991;28;20657;-73
2021/10/05 03:12:06;;;;;;;4.73;0.63;;;23.50;54.30;;;;;;5092482;28;20259;-72
2021/10/05 03:14:33;;;;;;;4.23;0.63;;;24.20;53.60;;;;;;5092545;28;20260;-73
2021/10/05 03:17:00;;;;;;;1.13;0.50;;;23.90;52.50;;;;;;5092086;28;20198;-72
2021/10/05 03:19:28;;;;;;;0.87;0.63;;;23.70;53.00;;;;;;5092382;28;20261;-72
2021/10/05 03:21:56;;;;;;;2.77;0.60;;;23.30;51.90;;;;;;5091996;28;20190;-71
2021/10/05 03:24:25;;;;;;;5.83;0.90;;;23.30;52.50;;;;;;5092035;28;20649;-72
2021/10/05 03:26:52;;;;;;;2.83;0.60;;;24.00;52.10;;;;;;5092615;28;20173;-71
2021/10/05 03:29:20;;;;;;;1.33;0.50;;;23.90;51.50;;;;;;5092343;28;20223;-72
2021/10/05 03:31:47;;;;;;;1.60;0.50;;;24.10;50.90;;;;;;5092055;28;20276;-72
2021/10/05 03:34:14;;;;;;;2.80;0.60;;;24.30;52.50;;;;;;5092311;28;20178;-72
2021/10/05 03:36:42;;;;;;;2.20;0.70;;;24.10;50.60;;;;;;5092162;28;20226;-72
2021/10/05 03:39:09;;;;;;;2.50;0.70;;;24.40;50.80;;;;;;5091970;28;20175;-72
2021/10/05 03:41:37;;;;;;;3.77;0.70;;;24.40;50.00;;;;;;5088424;28;20166;-72
2021/10/05 03:44:05;;;;;;;3.00;0.93;;;24.60;50.00;;;;;;5091997;28;20175;-73
2021/10/05 03:46:32;;;;;;;2.43;0.77;;;24.50;48.30;;;;;;5091776;28;20171;-74
2021/10/05 03:49:00;;;;;;;0.83;0.50;;;23.90;50.20;;;;;;5091507;28;20593;-73
2021/10/05 03:51:27;;;;;;;1.20;0.60;;;24.60;50.90;;;;;;5091989;28;20649;-70
2021/10/05 03:53:55;;;;;;;2.20;0.80;;;25.20;48.70;;;;;;5093329;28;20225;-70
2021/10/05 03:56:22;;;;;;;3.27;0.73;;;25.20;50.30;;;;;;5095851;28;20177;-71
2021/10/05 03:58:50;;;;;;;5.10;0.70;;;25.10;49.50;;;;;;5095711;28;20236;-74
2021/10/05 04:01:17;;;;;;;1.50;0.60;;;25.30;48.80;;;;;;5095704;28;20273;-71
2021/10/05 04:03:45;;;;;;;3.27;0.80;;;25.30;49.20;;;;;;5095021;28;20183;-75
2021/10/05 04:06:12;;;;;;;5.17;0.77;;;25.40;49.40;;;;;;5095626;28;20497;-74
2021/10/05 04:08:40;;;;;;;4.63;0.67;;;25.40;48.30;;;;;;5095078;28;20170;-70
2021/10/05 04:11:08;;;;;;;1.90;0.73;;;24.90;49.50;;;;;;5095296;28;20186;-72
2021/10/05 04:13:36;;;;;;;1.70;0.53;;;25.20;49.90;;;;;;5075798;28;20183;-73
2021/10/05 04:16:03;;;;;;;1.40;0.60;;;24.70;49.30;;;;;;5075459;28;20194;-74
2021/10/05 04:18:30;;;;;;;1.93;0.60;;;24.50;50.20;;;;;;5094520;28;20241;-73
2021/10/05 04:20:58;;;;;;;3.50;1.00;;;24.60;49.60;;;;;;5095442;28;20202;-72
2021/10/05 04:23:25;;;;;;;1.73;0.90;;;24.80;49.80;;;;;;5094853;28;20235;-71
2021/10/05 04:25:53;;;;;;;2.60;0.60;;;24.90;49.40;;;;;;5094634;28;20179;-71
2021/10/05 04:28:20;;;;;;;4.83;1.10;;;24.80;49.60;;;;;;5094288;28;20175;-70
2021/10/05 04:30:48;;;;;;;3.13;0.73;;;24.80;49.30;;;;;;5092456;28;20171;-74
2021/10/05 04:33:15;;;;;;;4.60;0.90;;;24.90;49.60;;;;;;5083495;28;20263;-72
2021/10/05 04:35:42;;;;;;;3.97;1.07;;;24.70;49.60;;;;;;5094803;28;20190;-72
2021/10/05 04:38:10;;;;;;;2.33;1.07;;;25.10;50.00;;;;;;5094708;28;20305;-71
2021/10/05 04:40:37;;;;;;;3.40;1.10;;;25.10;48.80;;;;;;5094862;28;20167;-72
2021/10/05 04:43:04;;;;;;;2.37;0.60;;;24.70;49.60;;;;;;5093572;28;20183;-74
2021/10/05 04:45:32;;;;;;;6.17;0.90;;;24.90;49.60;;;;;;5094635;28;20258;-71
2021/10/05 04:47:59;;;;;;;3.07;0.83;;;24.60;49.50;;;;;;5094599;28;20183;-74
2021/10/05 04:50:26;;;;;;;5.37;0.90;;;24.70;50.10;;;;;;5094684;28;20167;-74
2021/10/05 04:52:54;;;;;;;1.90;0.73;;;25.00;49.90;;;;;;5095239;28;20228;-70
2021/10/05 04:55:21;;;;;;;3.53;0.83;;;25.20;50.00;;;;;;5094003;28;20206;-72
2021/10/05 04:57:49;;;;;;;3.47;0.83;;;24.90;49.90;;;;;;5094282;28;20217;-72
2021/10/05 05:00:16;;;;;;;5.27;0.80;;;25.20;49.60;;;;;;5094962;28;20212;-75
2021/10/05 05:02:44;;;;;;;3.17;0.80;;;25.10;49.00;;;;;;5094672;28;20170;-71
2021/10/05 05:05:11;;;;;;;3.73;1.20;;;24.70;49.20;;;;;;5091902;28;20175;-70
2021/10/05 05:07:39;;;;;;;7.77;1.20;;;24.60;49.60;;;;;;5081452;28;20217;-74
2021/10/05 05:10:07;;;;;;;5.13;0.90;;;25.10;49.50;;;;;;5082516;28;20232;-72
2021/10/05 05:12:35;;;;;;;4.07;0.90;;;25.30;49.00;;;;;;5089181;28;20267;-71
2021/10/05 05:15:03;;;;;;;2.47;0.77;;;24.90;49.60;;;;;;5085702;28;20178;-73
2021/10/05 05:17:31;;;;;;;3.23;0.90;;;24.80;49.90;;;;;;5073536;28;20214;-76
2021/10/05 05:19:58;;;;;;;10.73;1.10;;;24.30;50.50;;;;;;5084577;28;20166;-71
2021/10/05 05:22:25;;;;;;;2.77;0.90;;;24.80;50.20;;;;;;5093768;28;20190;-71
2021/10/05 05:24:53;;;;;;;3.10;0.80;;;25.10;49.30;;;;;;5087307;28;20198;-70
2021/10/05 05:27:22;;;;;;;4.60;1.20;;;25.30;48.90;;;;;;5093586;28;20189;-71
2021/10/05 05:29:51;;;;;;;3.03;1.00;;;25.20;49.10;;;;;;5093205;28;20533;-71
2021/10/05 05:32:18;;;;;;;2.90;0.63;;;25.10;49.50;;;;;;5093750;28;20265;-72
2021/10/05 05:34:46;;;;;;;4.13;0.97;;;25.30;49.40;;;;;;5085298;28;20189;-72
2021/10/05 05:37:13;;;;;;;4.37;0.87;;;25.10;48.80;;;;;;5093072;28;20207;-73
2021/10/05 05:39:42;;;;;;;6.87;0.97;;;25.50;49.30;;;;;;5085282;28;20178;-71
2021/10/05 05:42:11;;;;;;;5.07;1.00;;;25.10;49.30;;;;;;5093814;28;20178;-73
2021/10/05 05:44:40;;;;;;;2.50;0.87;;;25.40;49.80;;;;;;5085269;28;20174;-73
2021/10/05 05:47:08;;;;;;;4.73;1.40;;;25.10;49.10;;;;;;5084448;28;20248;-74
2021/10/05 05:49:35;;;;;;;5.07;1.13;;;24.70;49.80;;;;;;5093154;28;20182;-71
2021/10/05 05:52:02;;;;;;;3.80;1.13;;;24.50;49.90;;;;;;5083363;28;20181;-72
2021/10/05 05:54:30;;;;;;;7.03;0.97;;;24.50;49.40;;;;;;5085652;28;20186;-73
2021/10/05 05:56:59;;;;;;;6.50;1.20;;;24.60;49.50;;;;;;5091530;28;20209;-74
2021/10/05 05:59:26;;;;;;;3.93;1.17;;;25.00;49.40;;;;;;5080869;28;20683;-72
2021/10/05 06:01:53;;;;;;;2.03;0.80;;;25.10;48.80;;;;;;5092242;28;20179;-76
2021/10/05 06:04:21;;;;;;;2.87;1.03;;;24.80;49.60;;;;;;5093034;28;20205;-73
2021/10/05 06:06:48;;;;;;;4.47;1.10;;;25.20;49.30;;;;;;5093191;28;20667;-72
2021/10/05 06:09:16;;;;;;;4.77;1.03;;;25.10;48.90;;;;;;5089653;28;20265;-73
2021/10/05 06:11:44;;;;;;;4.57;1.30;;;25.50;48.90;;;;;;5092378;28;20317;-73
2021/10/05 06:14:11;;;;;;;3.13;0.97;;;25.60;48.90;;;;;;5090959;28;20183;-72
2021/10/05 06:16:38;;;;;;;5.77;1.17;;;25.50;49.40;;;;;;5089670;28;20544;-70
2021/10/05 06:19:06;;;;;;;7.10;1.40;;;25.00;49.10;;;;;;5081118;28;20232;-72
2021/10/05 06:21:33;;;;;;;3.87;1.13;;;25.10;49.40;;;;;;5092492;28;20582;-74
2021/10/05 06:24:01;;;;;;;4.70;1.10;;;25.10;49.40;;;;;;5091345;28;20197;-74
2021/10/05 06:26:28;;;;;;;3.73;1.10;;;24.60;50.10;;;;;;5093083;28;20186;-74
2021/10/05 06:28:55;;;;;;;2.07;0.80;;;24.60;50.30;;;;;;5087321;28;20233;-72
2021/10/05 06:31:23;;;;;;;5.80;1.33;;;25.10;50.20;;;;;;5090436;28;20190;-71
2021/10/05 06:33:50;;;;;;;5.50;1.00;;;25.10;49.80;;;;;;5088522;28;20209;-70
2021/10/05 06:36:18;;;;;;;8.93;1.60;;;24.80;50.10;;;;;;5092315;28;20265;-74
2021/10/05 06:38:45;;;;;;;4.53;1.13;;;24.80;50.80;;;;;;5084177;28;20214;-72
2021/10/05 06:41:12;;;;;;;4.73;1.27;;;24.80;50.20;;;;;;5091853;28;20255;-73
2021/10/05 06:43:39;;;;;;;8.23;1.40;;;24.10;50.80;;;;;;5087193;28;20243;-75
2021/10/05 06:46:07;;;;;;;5.47;1.20;;;23.90;51.40;;;;;;5091943;28;20261;-75
2021/10/05 06:48:34;;;;;;;5.13;1.57;;;23.70;51.80;;;;;;5087591;28;20334;-73
2021/10/05 06:51:02;;;;;;;6.47;1.60;;;23.30;52.40;;;;;;5079416;28;20182;-75
2021/10/05 06:53:29;;;;;;;7.77;1.70;;;23.40;52.20;;;;;;5090428;28;20174;-69
2021/10/05 06:55:56;;;;;;;6.27;1.40;;;23.20;52.40;;;;;;5077888;28;20179;-70
2021/10/05 06:58:24;;;;;;;3.13;1.40;;;23.20;52.70;;;;;;5090404;28;20202;-74
2021/10/05 07:00:51;;;;;;;6.80;1.47;;;22.90;52.40;;;;;;5092084;28;20186;-72
2021/10/05 07:03:19;;;;;;;6.83;1.33;;;22.40;53.10;;;;;;5092178;28;20182;-71
2021/10/05 07:05:46;;;;;;;6.43;1.50;;;22.40;53.40;;;;;;5093920;28;20281;-71
2021/10/05 07:08:14;;;;;;;6.63;1.47;;;22.50;53.60;;;;;;5079139;28;20182;-72
2021/10/05 07:10:42;;;;;;;9.00;1.70;;;22.50;53.30;;;;;;5081226;28;20175;-70
2021/10/05 07:13:09;;;;;;;5.93;1.57;;;22.20;53.70;;;;;;5087225;28;20273;-74
2021/10/05 07:15:37;;;;;;;4.57;1.53;;;22.00;54.20;;;;;;5091111;28;20190;-70
2021/10/05 07:18:05;;;;;;;5.23;1.70;;;22.00;54.10;;;;;;5077815;28;20673;-71
2021/10/05 07:20:33;;;;;;;5.63;1.90;;;21.90;54.70;;;;;;5089381;28;20186;-72
2021/10/05 07:23:00;;;;;;;8.87;1.70;;;21.50;54.70;;;;;;5090255;28;20671;-68
2021/10/05 07:25:29;;;;;;;7.60;1.60;;;21.00;55.50;;;;;;5086190;28;20648;-73
2021/10/05 07:27:57;;;;;;;7.07;1.70;;;20.40;56.00;;;;;;5083844;28;20178;-72
2021/10/05 07:30:25;;;;;;;9.07;1.53;;;20.20;56.80;;;;;;5095726;28;20181;-71
2021/10/05 07:32:55;;;;;;;18.37;1.97;;;20.10;57.40;;;;;;5096134;28;20513;-68
2021/10/05 07:35:22;;;;;;;9.37;2.00;;;20.00;57.50;;;;;;5095841;28;20205;-70
2021/10/05 07:37:50;;;;;;;6.73;1.97;;;20.00;57.80;;;;;;5094015;28;20221;-70
2021/10/05 07:40:20;;;;;;;4.77;1.90;;;20.00;57.90;;;;;;5092145;28;20556;-71
2021/10/05 07:42:49;;;;;;;8.53;1.87;;;19.90;57.70;;;;;;5094711;28;20178;-70
2021/10/05 07:45:17;;;;;;;10.77;2.00;;;19.70;57.40;;;;;;5096092;28;20178;-68
2021/10/05 07:47:44;;;;;;;8.20;1.70;;;19.60;57.60;;;;;;5090547;28;20270;-73
2021/10/05 07:50:12;;;;;;;9.57;2.60;;;19.50;58.10;;;;;;5095805;28;20175;-75
2021/10/05 07:52:40;;;;;;;9.73;1.77;;;19.50;58.40;;;;;;5094001;28;20175;-68
2021/10/05 07:55:07;;;;;;;7.17;2.27;;;19.30;58.60;;;;;;5095430;28;20181;-69
2021/10/05 07:57:36;;;;;;;11.83;2.57;;;19.20;59.00;;;;;;5095794;28;20653;-74
2021/10/05 08:00:06;;;;;;;7.97;2.13;;;19.10;59.20;;;;;;5095723;28;20174;-70
2021/10/05 08:02:33;;;;;;;6.27;1.77;;;19.10;59.50;;;;;;5094843;28;20571;-69
2021/10/05 08:05:02;;;;;;;10.93;2.67;;;19.00;59.90;;;;;;5087485;28;20176;-69
2021/10/05 08:07:29;;;;;;;10.00;2.67;;;18.90;60.10;;;;;;5078693;28;20182;-74
2021/10/05 08:09:57;;;;;;;8.47;2.10;;;18.80;60.30;;;;;;5089220;28;20265;-72
2021/10/05 08:12:25;;;;;;;10.80;2.03;;;18.80;60.40;;;;;;5093206;28;20226;-72
2021/10/05 08:14:53;;;;;;;11.47;2.33;;;18.70;60.70;;;;;;5088206;28;20182;-73
2021/10/05 08:17:21;;;;;;;5.97;1.77;;;18.70;60.70;;;;;;5085114;28;20542;-69
2021/10/05 08:19:48;;;;;;;12.27;2.20;;;18.60;61.00;;;;;;5093384;28;20561;-70
2021/10/05 08:22:16;;;;;;;6.57;2.00;;;18.60;61.10;;;;;;5093153;28;20182;-68
2021/10/05 08:24:44;;;;;;;8.80;2.33;;;18.60;61.40;;;;;;5090515;28;20175;-69
2021/10/05 08:27:11;;;;;;;9.47;2.23;;;18.50;61.40;;;;;;5095026;28;20232;-70
2021/10/05 08:29:40;;;;;;;7.47;2.13;;;18.50;61.30;;;;;;5089184;28;20203;-71
2021/10/05 08:32:08;;;;;;;6.57;1.97;;;18.40;61.50;;;;;;5098623;28;20173;-69
2021/10/05 08:34:37;;;;;;;7.17;2.27;;;18.40;61.30;;;;;;5085415;28;20178;-70
2021/10/05 08:37:04;;;;;;;11.53;2.30;;;18.40;61.50;;;;;;5091676;28;20198;-71
2021/10/05 08:39:32;;;;;;;8.57;2.80;;;18.30;61.50;;;;;;5092676;28;20611;-71
2021/10/05 08:42:00;;;;;;;9.17;1.90;;;18.30;61.50;;;;;;5082527;28;20187;-69
2021/10/05 08:44:28;;;;;;;9.23;2.70;;;18.20;61.60;;;;;;5100323;28;20178;-69
2021/10/05 08:46:55;;;;;;;9.33;2.40;;;18.30;61.80;;;;;;5094724;28;20178;-73
2021/10/05 08:49:23;;;;;;;6.60;1.80;;;18.20;61.90;;;;;;5094464;28;20178;-72
2021/10/05 08:51:52;;;;;;;12.37;2.00;;;18.20;62.60;;;;;;5094702;28;20174;-70
2021/10/05 08:54:20;;;;;;;12.80;2.87;;;18.10;62.20;;;;;;5091049;28;20246;-68
2021/10/05 08:56:48;;;;;;;8.33;2.40;;;18.10;62.50;;;;;;5086199;28;20759;-71
2021/10/05 08:59:16;;;;;;;10.17;2.50;;;18.10;62.40;;;;;;5091631;28;20175;-68
2021/10/05 09:01:44;;;;;;;12.20;2.73;;;18.00;62.50;;;;;;5086595;28;20517;-70
2021/10/05 09:04:11;;;;;;;11.30;2.23;;;18.00;62.40;;;;;;5092837;28;20940;-71
2021/10/05 09:06:41;;;;;;;10.67;1.90;;;18.00;62.20;;;;;;5081081;28;20174;-73
2021/10/05 09:09:08;;;;;;;10.67;2.17;;;17.90;62.40;;;;;;5088120;28;20175;-69
2021/10/05 09:11:42;;;;;;;8.47;1.90;;;17.90;63.10;;;;;;5094663;28;20214;-72
2021/10/05 09:14:09;;;;;;;10.97;2.60;;;17.80;62.90;;;;;;5084913;28;20190;-68
2021/10/05 09:16:37;;;;;;;9.87;1.93;;;17.80;63.10;;;;;;5091902;28;20261;-71
2021/10/05 09:19:04;;;;;;;12.37;2.03;;;17.70;63.20;;;;;;5087037;28;20193;-71
2021/10/05 09:21:41;;;;;;;13.10;2.40;;;17.70;63.10;;;;;;5089480;28;20178;-73
2021/10/05 09:24:14;;;;;;;10.30;2.10;;;17.70;63.10;;;;;;5086965;28;20231;-72
2021/10/05 09:27:05;;;;;;;11.10;2.13;;;17.70;63.40;;;;;;5091377;28;20264;-71
2021/10/05 09:29:38;;;;;;;10.93;2.20;;;17.60;63.40;;;;;;5087970;28;20188;-72
2021/10/05 09:32:11;;;;;;;10.23;2.60;;;17.60;63.50;;;;;;5080324;28;20225;-71
2021/10/05 09:34:50;;;;;;;12.03;2.03;;;17.60;63.60;;;;;;5087848;28;20177;-71
2021/10/05 09:37:22;;;;;;;10.30;2.67;;;17.50;64.00;;;;;;5092651;28;20201;-70
2021/10/05 09:39:51;;;;;;;11.20;3.23;;;17.50;64.30;;;;;;5091947;28;20186;-70
2021/10/05 09:42:22;;;;;;;10.27;2.33;;;17.40;64.30;;;;;;5091405;28;20255;-70
2021/10/05 09:45:08;;;;;;;7.63;2.10;;;17.30;64.90;;;;;;5093728;28;20182;-69
2021/10/05 09:47:43;;;;;;;10.47;2.40;;;17.30;64.80;;;;;;5093646;28;20235;-70
2021/10/05 09:50:32;;;;;;;11.57;2.10;;;17.20;64.90;;;;;;5088290;28;20209;-70
2021/10/05 09:53:02;;;;;;;8.00;2.30;;;17.20;64.90;;;;;;5093664;28;20194;-69
2021/10/05 09:55:35;;;;;;;10.40;2.70;;;17.20;65.10;;;;;;5093385;28;20182;-69
2021/10/05 09:58:03;;;;;;;8.43;2.47;;;17.20;65.70;;;;;;5090664;28;20289;-69
2021/10/05 10:00:33;;;;;;;11.70;2.30;;;17.10;65.50;;;;;;5093363;28;20257;-69
2021/10/05 10:03:00;;;;;;;14.60;2.40;;;17.10;65.50;;;;;;5087598;28;20242;-69
2021/10/05 10:05:29;;;;;;;9.23;2.47;;;17.10;65.80;;;;;;5093461;28;20654;-71
2021/10/05 10:07:58;;;;;;;12.60;2.47;;;17.00;65.70;;;;;;5093208;28;20186;-73
2021/10/05 10:10:31;;;;;;;9.43;2.40;;;17.00;65.70;;;;;;5088340;28;20531;-69
2021/10/05 10:13:04;;;;;;;7.03;2.10;;;17.00;65.90;;;;;;5090529;28;20330;-67
2021/10/05 10:15:34;;;;;;;11.30;1.87;;;17.00;66.40;;;;;;5093110;28;20217;-72
2021/10/05 10:18:15;;;;;;;9.63;2.53;;;16.90;66.50;;;;;;5083056;28;20671;-72
2021/10/05 10:20:45;;;;;;;10.27;2.50;;;16.90;66.50;;;;;;5081707;28;20186;-70
2021/10/05 10:23:26;;;;;;;12.60;2.57;;;16.90;66.70;;;;;;5093147;28;20510;-71
2021/10/05 10:26:04;;;;;;;11.77;2.40;;;16.90;66.80;;;;;;5092642;28;20171;-69
2021/10/05 10:28:39;;;;;;;14.23;2.43;;;16.80;66.90;;;;;;5093036;28;20204;-69
2021/10/05 10:31:10;;;;;;;8.97;2.20;;;16.80;67.40;;;;;;5091655;28;20655;-73
2021/10/05 10:33:52;;;;;;;10.03;2.17;;;16.80;67.30;;;;;;5091646;28;20182;-69
2021/10/05 10:36:42;;;;;;;8.70;2.37;;;16.80;67.40;;;;;;5091458;28;20272;-70
2021/10/05 10:39:13;;;;;;;9.47;2.33;;;16.80;67.60;;;;;;5087788;28;20920;-71
2021/10/05 10:41:43;;;;;;;9.77;2.53;;;16.70;67.90;;;;;;5075175;28;20180;-73
2021/10/05 10:44:12;;;;;;;9.23;1.80;;;16.70;68.00;;;;;;5092686;28;20178;-70
2021/10/05 10:46:41;;;;;;;12.17;2.20;;;16.70;68.30;;;;;;5092699;28;20607;-72
2021/10/05 10:49:20;;;;;;;10.00;2.20;;;16.70;68.30;;;;;;5092551;28;20182;-69
2021/10/05 10:51:50;;;;;;;16.17;3.23;;;16.70;68.60;;;;;;5092820;28;20181;-72
2021/10/05 10:54:23;;;;;;;9.23;2.20;;;16.60;68.60;;;;;;5092452;28;20185;-71
2021/10/05 10:57:06;;;;;;;9.40;2.93;;;16.60;68.90;;;;;;5090237;28;20292;-69
2021/10/05 10:59:34;;;;;;;10.00;2.50;;;16.50;69.10;;;;;;5088353;28;20250;-71
2021/10/05 11:02:06;;;;;;;11.73;1.93;;;16.60;69.30;;;;;;5092098;28;20174;-72
2021/10/05 11:04:34;;;;;;;7.80;2.00;;;16.50;69.40;;;;;;5077585;28;20190;-71
2021/10/05 11:07:02;;;;;;;11.47;1.90;;;16.50;69.60;;;;;;5091262;28;20186;-72
2021/10/05 11:09:32;;;;;;;7.57;2.13;;;16.40;69.80;;;;;;5080474;28;20216;-72
2021/10/05 11:12:02;;;;;;;9.73;1.77;;;16.40;69.80;;;;;;5091650;28;20229;-72
2021/10/05 11:14:33;;;;;;;12.60;2.40;;;16.50;70.10;;;;;;5087685;28;20182;-72
2021/10/05 11:17:07;;;;;;;10.43;2.23;;;16.40;70.10;;;;;;5082048;28;20211;-71
2021/10/05 11:19:42;;;;;;;9.00;2.60;;;16.40;70.30;;;;;;5082104;28;20270;-70
2021/10/05 11:22:11;;;;;;;7.17;2.30;;;16.30;70.50;;;;;;5080209;28;20216;-72
2021/10/05 11:24:50;;;;;;;12.80;2.00;;;16.30;70.70;;;;;;5091758;28;20639;-70
2021/10/05 11:27:20;;;;;;;8.30;2.57;;;16.30;71.00;;;;;;5092097;28;20560;-71
2021/10/05 11:29:48;;;;;;;8.30;1.83;;;16.30;71.00;;;;;;5090158;28;20225;-69
2021/10/05 11:32:18;;;;;;;11.83;2.60;;;16.20;71.20;;;;;;5089642;28;20278;-70
2021/10/05 11:34:48;;;;;;;9.03;2.00;;;16.20;71.30;;;;;;5085472;28;20190;-71
2021/10/05 11:37:18;;;;;;;6.87;2.00;;;16.20;71.60;;;;;;5092131;28;20210;-72
2021/10/05 11:39:47;;;;;;;16.17;2.20;;;16.10;71.70;;;;;;5088650;28;20183;-72
2021/10/05 11:42:20;;;;;;;12.37;3.33;;;16.10;71.90;;;;;;5090606;28;20240;-70
2021/10/05 11:44:47;;;;;;;13.30;2.50;;;16.10;71.80;;;;;;5092205;28;20206;-72
2021/10/05 11:47:17;;;;;;;12.80;2.87;;;16.10;72.10;;;;;;5083203;28;20201;-71
2021/10/05 11:49:50;;;;;;;11.00;2.83;;;16.00;72.20;;;;;;5091707;28;20973;-71
2021/10/05 11:52:23;;;;;;;10.40;2.07;;;16.00;72.30;;;;;;5089987;28;20660;-71
2021/10/05 11:54:52;;;;;;;12.27;2.00;;;16.00;72.40;;;;;;5091842;28;20621;-70
2021/10/05 11:57:25;;;;;;;13.87;2.97;;;16.00;72.70;;;;;;5091663;28;20191;-71
2021/10/05 11:59:55;;;;;;;10.20;3.00;;;16.00;72.70;;;;;;5080680;28;20189;-73
2021/10/05 12:02:24;;;;;;;12.47;2.13;;;16.00;72.70;;;;;;5091654;28;20179;-71
2021/10/05 12:04:53;;;;;;;10.40;2.60;;;16.00;72.70;;;;;;5091788;28;20174;-72
2021/10/05 12:07:23;;;;;;;7.73;1.77;;;15.90;73.00;;;;;;5091854;28;20510;-73
2021/10/05 12:10:17;;;;;;;7.97;2.20;;;15.90;73.20;;;;;;5077558;28;20204;-71
2021/10/05 12:12:45;;;;;;;11.33;2.23;;;15.90;73.50;;;;;;5079897;28;20226;-70
2021/10/05 12:15:24;;;;;;;9.87;2.33;;;15.80;73.50;;;;;;5094748;28;20187;-72
2021/10/05 12:18:07;;;;;;;10.13;2.43;;;15.80;73.90;;;;;;5085081;28;20303;-73
2021/10/05 12:20:34;;;;;;;10.13;2.40;;;15.80;74.00;;;;;;5081786;28;20208;-69
2021/10/05 12:23:08;;;;;;;12.50;1.93;;;15.70;74.20;;;;;;5089181;28;20643;-70
2021/10/05 12:25:41;;;;;;;12.93;2.63;;;15.70;74.40;;;;;;5095477;28;20309;-71
2021/10/05 12:28:08;;;;;;;10.23;2.33;;;15.70;74.70;;;;;;5088063;28;20179;-69
2021/10/05 12:30:35;;;;;;;12.20;2.30;;;15.70;74.80;;;;;;5095256;28;20174;-70
2021/10/05 12:33:12;;;;;;;12.20;2.27;;;15.60;74.80;;;;;;5095401;28;20185;-71
2021/10/05 12:35:41;;;;;;;11.27;2.13;;;15.60;74.80;;;;;;5088731;28;20304;-69
2021/10/05 12:38:23;;;;;;;8.90;2.47;;;15.60;75.00;;;;;;5076761;28;20218;-70
2021/10/05 12:41:01;;;;;;;8.60;2.40;;;15.60;75.20;;;;;;5094738;28;20194;-73
2021/10/05 12:43:42;;;;;;;9.77;3.17;;;15.60;75.40;;;;;;5095108;28;20186;-70
2021/10/05 12:46:15;;;;;;;11.27;2.50;;;15.50;75.70;;;;;;5090951;28;20641;-69
2021/10/05 12:48:49;;;;;;;11.80;2.47;;;15.50;75.70;;;;;;5095065;28;20182;-70
2021/10/05 12:51:17;;;;;;;7.50;2.23;;;15.50;76.00;;;;;;5095057;28;20187;-70
2021/10/05 12:53:48;;;;;;;15.67;2.70;;;15.50;76.10;;;;;;5093068;28;20271;-68
2021/10/05 12:56:20;;;;;;;10.80;2.07;;;15.40;76.20;;;;;;5081133;28;20308;-72